sensor_id;sensor_type;location;lat;lon;timestamp;pressure;altitude;pressure_sealevel;temperature
75822;BMP180;64454;51.984;9.838;2023-05-07T00:00:52;100518.00;;;12.70
75822;BMP180;64454;51.984;9.838;2023-05-07T00:03:19;100516.00;;;12.40
75822;BMP180;64454;51.984;9.838;2023-05-07T00:05:47;100527.00;;;12.30
75822;BMP180;64454;51.984;9.838;2023-05-07T00:08:13;100523.00;;;11.90
75822;BMP180;64454;51.984;9.838;2023-05-07T00:10:41;100523.00;;;12.20
75822;BMP180;64454;51.984;9.838;2023-05-07T00:13:08;100514.00;;;12.10
75822;BMP180;64454;51.984;9.838;2023-05-07T00:15:35;100509.00;;;12.30
75822;BMP180;64454;51.984;9.838;2023-05-07T00:18:03;100507.00;;;12.40
75822;BMP180;64454;51.984;9.838;2023-05-07T00:20:30;100513.00;;;12.80
75822;BMP180;64454;51.984;9.838;2023-05-07T00:22:57;100501.00;;;12.30
75822;BMP180;64454;51.984;9.838;2023-05-07T00:25:24;100498.00;;;12.00
75822;BMP180;64454;51.984;9.838;2023-05-07T00:27:50;100502.00;;;12.00
75822;BMP180;64454;51.984;9.838;2023-05-07T00:30:17;100499.00;;;12.30
75822;BMP180;64454;51.984;9.838;2023-05-07T00:32:44;100493.00;;;12.10
75822;BMP180;64454;51.984;9.838;2023-05-07T00:35:12;100496.00;;;11.90
75822;BMP180;64454;51.984;9.838;2023-05-07T00:37:39;100502.00;;;12.10
75822;BMP180;64454;51.984;9.838;2023-05-07T00:40:07;100500.00;;;12.00
75822;BMP180;64454;51.984;9.838;2023-05-07T00:42:35;100495.00;;;12.20
75822;BMP180;64454;51.984;9.838;2023-05-07T00:45:02;100497.00;;;12.20
75822;BMP180;64454;51.984;9.838;2023-05-07T00:47:30;100493.00;;;12.10
75822;BMP180;64454;51.984;9.838;2023-05-07T00:49:57;100493.00;;;11.90
75822;BMP180;64454;51.984;9.838;2023-05-07T00:52:27;100487.00;;;11.80
75822;BMP180;64454;51.984;9.838;2023-05-07T00:54:54;100492.00;;;12.10
75822;BMP180;64454;51.984;9.838;2023-05-07T00:57:22;100492.00;;;12.00
75822;BMP180;64454;51.984;9.838;2023-05-07T00:59:51;100490.00;;;12.00
75822;BMP180;64454;51.984;9.838;2023-05-07T01:02:18;100488.00;;;11.80
75822;BMP180;64454;51.984;9.838;2023-05-07T01:04:45;100492.00;;;12.00
75822;BMP180;64454;51.984;9.838;2023-05-07T01:07:13;100489.00;;;11.60
75822;BMP180;64454;51.984;9.838;2023-05-07T01:09:41;100496.00;;;11.60
75822;BMP180;64454;51.984;9.838;2023-05-07T01:12:08;100486.00;;;11.80
75822;BMP180;64454;51.984;9.838;2023-05-07T01:14:35;100490.00;;;11.70
75822;BMP180;64454;51.984;9.838;2023-05-07T01:17:02;100482.00;;;11.80
75822;BMP180;64454;51.984;9.838;2023-05-07T01:19:29;100489.00;;;12.30
75822;BMP180;64454;51.984;9.838;2023-05-07T01:22:06;100500.00;;;12.20
75822;BMP180;64454;51.984;9.838;2023-05-07T01:24:36;100504.00;;;12.00
75822;BMP180;64454;51.984;9.838;2023-05-07T01:27:04;100509.00;;;11.70
75822;BMP180;64454;51.984;9.838;2023-05-07T01:29:30;100511.00;;;11.70
75822;BMP180;64454;51.984;9.838;2023-05-07T01:32:00;100502.00;;;11.60
75822;BMP180;64454;51.984;9.838;2023-05-07T01:34:31;100514.00;;;11.80
75822;BMP180;64454;51.984;9.838;2023-05-07T01:37:00;100514.00;;;11.70
75822;BMP180;64454;51.984;9.838;2023-05-07T01:39:29;100519.00;;;11.50
75822;BMP180;64454;51.984;9.838;2023-05-07T01:41:59;100514.00;;;11.70
75822;BMP180;64454;51.984;9.838;2023-05-07T01:44:26;100507.00;;;11.40
75822;BMP180;64454;51.984;9.838;2023-05-07T01:46:54;100511.00;;;11.20
75822;BMP180;64454;51.984;9.838;2023-05-07T01:49:21;100509.00;;;11.60
75822;BMP180;64454;51.984;9.838;2023-05-07T01:51:48;100504.00;;;11.80
75822;BMP180;64454;51.984;9.838;2023-05-07T01:54:18;100504.00;;;11.80
75822;BMP180;64454;51.984;9.838;2023-05-07T01:56:46;100493.00;;;11.70
75822;BMP180;64454;51.984;9.838;2023-05-07T01:59:17;100500.00;;;11.50
75822;BMP180;64454;51.984;9.838;2023-05-07T02:01:44;100502.00;;;11.80
75822;BMP180;64454;51.984;9.838;2023-05-07T02:04:11;100502.00;;;11.80
75822;BMP180;64454;51.984;9.838;2023-05-07T02:06:38;100509.00;;;11.60
75822;BMP180;64454;51.984;9.838;2023-05-07T02:09:05;100518.00;;;11.50
75822;BMP180;64454;51.984;9.838;2023-05-07T02:11:34;100521.00;;;11.40
75822;BMP180;64454;51.984;9.838;2023-05-07T02:14:01;100521.00;;;11.60
75822;BMP180;64454;51.984;9.838;2023-05-07T02:16:29;100519.00;;;11.50
75822;BMP180;64454;51.984;9.838;2023-05-07T02:18:56;100519.00;;;11.60
75822;BMP180;64454;51.984;9.838;2023-05-07T02:21:24;100530.00;;;12.00
75822;BMP180;64454;51.984;9.838;2023-05-07T02:23:51;100531.00;;;12.20
75822;BMP180;64454;51.984;9.838;2023-05-07T02:26:18;100528.00;;;12.30
75822;BMP180;64454;51.984;9.838;2023-05-07T02:28:45;100529.00;;;11.90
75822;BMP180;64454;51.984;9.838;2023-05-07T02:31:13;100531.00;;;11.90
75822;BMP180;64454;51.984;9.838;2023-05-07T02:33:41;100533.00;;;11.80
75822;BMP180;64454;51.984;9.838;2023-05-07T02:36:09;100539.00;;;11.60
75822;BMP180;64454;51.984;9.838;2023-05-07T02:38:36;100534.00;;;11.80
75822;BMP180;64454;51.984;9.838;2023-05-07T02:41:03;100536.00;;;11.90
75822;BMP180;64454;51.984;9.838;2023-05-07T02:43:30;100538.00;;;11.70
75822;BMP180;64454;51.984;9.838;2023-05-07T02:46:02;100531.00;;;11.40
75822;BMP180;64454;51.984;9.838;2023-05-07T02:48:29;100537.00;;;11.40
75822;BMP180;64454;51.984;9.838;2023-05-07T02:50:57;100537.00;;;11.30
75822;BMP180;64454;51.984;9.838;2023-05-07T02:53:24;100530.00;;;11.50
75822;BMP180;64454;51.984;9.838;2023-05-07T02:55:52;100530.00;;;11.50
75822;BMP180;64454;51.984;9.838;2023-05-07T02:58:23;100524.00;;;11.60
75822;BMP180;64454;51.984;9.838;2023-05-07T03:00:50;100522.00;;;11.80
75822;BMP180;64454;51.984;9.838;2023-05-07T03:03:17;100519.00;;;11.70
75822;BMP180;64454;51.984;9.838;2023-05-07T03:05:44;100523.00;;;11.80
75822;BMP180;64454;51.984;9.838;2023-05-07T03:08:12;100519.00;;;11.60
75822;BMP180;64454;51.984;9.838;2023-05-07T03:10:39;100511.00;;;11.30
75822;BMP180;64454;51.984;9.838;2023-05-07T03:13:06;100515.00;;;11.40
75822;BMP180;64454;51.984;9.838;2023-05-07T03:15:32;100521.00;;;11.40
75822;BMP180;64454;51.984;9.838;2023-05-07T03:17:59;100516.00;;;11.30
75822;BMP180;64454;51.984;9.838;2023-05-07T03:20:26;100515.00;;;11.50
75822;BMP180;64454;51.984;9.838;2023-05-07T03:22:53;100511.00;;;11.50
75822;BMP180;64454;51.984;9.838;2023-05-07T03:25:21;100513.00;;;11.50
75822;BMP180;64454;51.984;9.838;2023-05-07T03:27:48;100506.00;;;11.20
75822;BMP180;64454;51.984;9.838;2023-05-07T03:30:15;100509.00;;;11.50
75822;BMP180;64454;51.984;9.838;2023-05-07T03:32:41;100508.00;;;11.40
75822;BMP180;64454;51.984;9.838;2023-05-07T03:35:08;100505.00;;;11.30
75822;BMP180;64454;51.984;9.838;2023-05-07T03:37:35;100509.00;;;11.40
75822;BMP180;64454;51.984;9.838;2023-05-07T03:40:03;100513.00;;;11.10
75822;BMP180;64454;51.984;9.838;2023-05-07T03:42:31;100512.00;;;11.10
75822;BMP180;64454;51.984;9.838;2023-05-07T03:44:58;100506.00;;;11.10
75822;BMP180;64454;51.984;9.838;2023-05-07T03:47:25;100507.00;;;11.10
75822;BMP180;64454;51.984;9.838;2023-05-07T03:49:53;100501.00;;;11.00
75822;BMP180;64454;51.984;9.838;2023-05-07T03:52:20;100515.00;;;11.00
75822;BMP180;64454;51.984;9.838;2023-05-07T03:54:52;100507.00;;;11.50
75822;BMP180;64454;51.984;9.838;2023-05-07T03:57:19;100512.00;;;11.00
75822;BMP180;64454;51.984;9.838;2023-05-07T03:59:47;100522.00;;;10.90
75822;BMP180;64454;51.984;9.838;2023-05-07T04:02:14;100514.00;;;11.10
75822;BMP180;64454;51.984;9.838;2023-05-07T04:04:41;100523.00;;;11.20
75822;BMP180;64454;51.984;9.838;2023-05-07T04:07:08;100521.00;;;11.10
75822;BMP180;64454;51.984;9.838;2023-05-07T04:09:35;100523.00;;;11.00
75822;BMP180;64454;51.984;9.838;2023-05-07T04:12:02;100524.00;;;11.30
75822;BMP180;64454;51.984;9.838;2023-05-07T04:14:29;100527.00;;;10.70
75822;BMP180;64454;51.984;9.838;2023-05-07T04:16:59;100534.00;;;10.90
75822;BMP180;64454;51.984;9.838;2023-05-07T04:19:25;100540.00;;;11.00
75822;BMP180;64454;51.984;9.838;2023-05-07T04:21:52;100539.00;;;11.10
75822;BMP180;64454;51.984;9.838;2023-05-07T04:24:20;100543.00;;;11.10
75822;BMP180;64454;51.984;9.838;2023-05-07T04:26:47;100542.00;;;11.00
75822;BMP180;64454;51.984;9.838;2023-05-07T04:29:15;100542.00;;;11.10
75822;BMP180;64454;51.984;9.838;2023-05-07T04:31:43;100548.00;;;10.80
75822;BMP180;64454;51.984;9.838;2023-05-07T04:34:11;100541.00;;;10.80
75822;BMP180;64454;51.984;9.838;2023-05-07T04:36:39;100545.00;;;10.90
75822;BMP180;64454;51.984;9.838;2023-05-07T04:39:06;100542.00;;;11.20
75822;BMP180;64454;51.984;9.838;2023-05-07T04:41:35;100540.00;;;11.10
75822;BMP180;64454;51.984;9.838;2023-05-07T04:44:02;100544.00;;;11.10
75822;BMP180;64454;51.984;9.838;2023-05-07T04:46:31;100544.00;;;11.30
75822;BMP180;64454;51.984;9.838;2023-05-07T04:48:58;100555.00;;;10.90
75822;BMP180;64454;51.984;9.838;2023-05-07T04:51:26;100553.00;;;11.00
75822;BMP180;64454;51.984;9.838;2023-05-07T04:53:53;100555.00;;;10.90
75822;BMP180;64454;51.984;9.838;2023-05-07T04:56:20;100561.00;;;11.10
75822;BMP180;64454;51.984;9.838;2023-05-07T04:58:47;100564.00;;;11.00
75822;BMP180;64454;51.984;9.838;2023-05-07T05:01:13;100565.00;;;11.10
75822;BMP180;64454;51.984;9.838;2023-05-07T05:03:40;100569.00;;;11.00
75822;BMP180;64454;51.984;9.838;2023-05-07T05:06:07;100570.00;;;11.10
75822;BMP180;64454;51.984;9.838;2023-05-07T05:08:35;100572.00;;;11.00
75822;BMP180;64454;51.984;9.838;2023-05-07T05:11:02;100578.00;;;11.20
75822;BMP180;64454;51.984;9.838;2023-05-07T05:13:29;100587.00;;;10.90
75822;BMP180;64454;51.984;9.838;2023-05-07T05:15:55;100578.00;;;11.10
75822;BMP180;64454;51.984;9.838;2023-05-07T05:18:22;100589.00;;;11.10
75822;BMP180;64454;51.984;9.838;2023-05-07T05:20:51;100600.00;;;10.90
75822;BMP180;64454;51.984;9.838;2023-05-07T05:23:17;100600.00;;;11.00
75822;BMP180;64454;51.984;9.838;2023-05-07T05:25:45;100603.00;;;11.00
75822;BMP180;64454;51.984;9.838;2023-05-07T05:28:12;100602.00;;;11.30
75822;BMP180;64454;51.984;9.838;2023-05-07T05:30:39;100611.00;;;11.60
75822;BMP180;64454;51.984;9.838;2023-05-07T05:33:06;100600.00;;;11.60
75822;BMP180;64454;51.984;9.838;2023-05-07T05:35:32;100596.00;;;11.30
75822;BMP180;64454;51.984;9.838;2023-05-07T05:38:01;100601.00;;;11.70
75822;BMP180;64454;51.984;9.838;2023-05-07T05:40:27;100599.00;;;11.60
75822;BMP180;64454;51.984;9.838;2023-05-07T05:42:55;100598.00;;;11.40
75822;BMP180;64454;51.984;9.838;2023-05-07T05:45:22;100596.00;;;11.50
75822;BMP180;64454;51.984;9.838;2023-05-07T05:47:49;100593.00;;;11.40
75822;BMP180;64454;51.984;9.838;2023-05-07T05:50:16;100593.00;;;11.50
75822;BMP180;64454;51.984;9.838;2023-05-07T05:52:43;100587.00;;;11.50
75822;BMP180;64454;51.984;9.838;2023-05-07T05:55:09;100591.00;;;11.70
75822;BMP180;64454;51.984;9.838;2023-05-07T05:57:36;100587.00;;;11.90
75822;BMP180;64454;51.984;9.838;2023-05-07T06:00:06;100579.00;;;12.00
75822;BMP180;64454;51.984;9.838;2023-05-07T06:02:33;100581.00;;;11.90
75822;BMP180;64454;51.984;9.838;2023-05-07T06:05:00;100586.00;;;11.80
75822;BMP180;64454;51.984;9.838;2023-05-07T06:07:27;100580.00;;;11.90
75822;BMP180;64454;51.984;9.838;2023-05-07T06:09:54;100580.00;;;11.90
75822;BMP180;64454;51.984;9.838;2023-05-07T06:12:21;100580.00;;;12.10
75822;BMP180;64454;51.984;9.838;2023-05-07T06:14:47;100592.00;;;12.10
75822;BMP180;64454;51.984;9.838;2023-05-07T06:17:15;100583.00;;;12.20
75822;BMP180;64454;51.984;9.838;2023-05-07T06:19:42;100591.00;;;12.00
75822;BMP180;64454;51.984;9.838;2023-05-07T06:22:09;100596.00;;;11.80
75822;BMP180;64454;51.984;9.838;2023-05-07T06:24:36;100600.00;;;11.80
75822;BMP180;64454;51.984;9.838;2023-05-07T06:27:03;100600.00;;;11.80
75822;BMP180;64454;51.984;9.838;2023-05-07T06:29:29;100606.00;;;12.00
75822;BMP180;64454;51.984;9.838;2023-05-07T06:32:06;100614.00;;;12.10
75822;BMP180;64454;51.984;9.838;2023-05-07T06:34:35;100615.00;;;12.20
75822;BMP180;64454;51.984;9.838;2023-05-07T06:37:02;100605.00;;;12.00
75822;BMP180;64454;51.984;9.838;2023-05-07T06:39:29;100606.00;;;11.80
75822;BMP180;64454;51.984;9.838;2023-05-07T06:41:56;100609.00;;;11.80
75822;BMP180;64454;51.984;9.838;2023-05-07T06:44:22;100618.00;;;11.70
75822;BMP180;64454;51.984;9.838;2023-05-07T06:46:49;100618.00;;;11.80
75822;BMP180;64454;51.984;9.838;2023-05-07T06:49:17;100623.00;;;11.70
75822;BMP180;64454;51.984;9.838;2023-05-07T06:51:46;100629.00;;;11.50
75822;BMP180;64454;51.984;9.838;2023-05-07T06:54:14;100627.00;;;11.50
75822;BMP180;64454;51.984;9.838;2023-05-07T06:56:42;100637.00;;;11.60
75822;BMP180;64454;51.984;9.838;2023-05-07T06:59:09;100634.00;;;11.70
75822;BMP180;64454;51.984;9.838;2023-05-07T07:01:35;100634.00;;;11.90
75822;BMP180;64454;51.984;9.838;2023-05-07T07:04:03;100633.00;;;11.70
75822;BMP180;64454;51.984;9.838;2023-05-07T07:06:30;100639.00;;;11.80
75822;BMP180;64454;51.984;9.838;2023-05-07T07:08:59;100641.00;;;11.80
75822;BMP180;64454;51.984;9.838;2023-05-07T07:11:26;100649.00;;;11.70
75822;BMP180;64454;51.984;9.838;2023-05-07T07:13:52;100645.00;;;11.70
75822;BMP180;64454;51.984;9.838;2023-05-07T07:16:20;100632.00;;;12.00
75822;BMP180;64454;51.984;9.838;2023-05-07T07:18:47;100635.00;;;11.90
75822;BMP180;64454;51.984;9.838;2023-05-07T07:21:13;100633.00;;;11.90
75822;BMP180;64454;51.984;9.838;2023-05-07T07:23:40;100637.00;;;11.80
75822;BMP180;64454;51.984;9.838;2023-05-07T07:26:08;100635.00;;;11.80
75822;BMP180;64454;51.984;9.838;2023-05-07T07:28:42;100643.00;;;11.80
75822;BMP180;64454;51.984;9.838;2023-05-07T07:31:08;100640.00;;;12.00
75822;BMP180;64454;51.984;9.838;2023-05-07T07:33:35;100636.00;;;12.20
75822;BMP180;64454;51.984;9.838;2023-05-07T07:36:02;100644.00;;;11.60
75822;BMP180;64454;51.984;9.838;2023-05-07T07:38:29;100633.00;;;11.90
75822;BMP180;64454;51.984;9.838;2023-05-07T07:40:56;100638.00;;;11.60
75822;BMP180;64454;51.984;9.838;2023-05-07T07:43:24;100637.00;;;11.90
75822;BMP180;64454;51.984;9.838;2023-05-07T07:45:51;100637.00;;;11.70
75822;BMP180;64454;51.984;9.838;2023-05-07T07:48:17;100649.00;;;11.80
75822;BMP180;64454;51.984;9.838;2023-05-07T07:50:44;100642.00;;;11.90
75822;BMP180;64454;51.984;9.838;2023-05-07T07:53:11;100643.00;;;12.10
75822;BMP180;64454;51.984;9.838;2023-05-07T07:55:38;100649.00;;;11.80
75822;BMP180;64454;51.984;9.838;2023-05-07T07:58:05;100650.00;;;12.00
75822;BMP180;64454;51.984;9.838;2023-05-07T08:00:34;100651.00;;;11.70
75822;BMP180;64454;51.984;9.838;2023-05-07T08:03:00;100655.00;;;11.80
75822;BMP180;64454;51.984;9.838;2023-05-07T08:05:29;100651.00;;;11.90
75822;BMP180;64454;51.984;9.838;2023-05-07T08:07:55;100654.00;;;12.30
75822;BMP180;64454;51.984;9.838;2023-05-07T08:10:22;100658.00;;;12.10
75822;BMP180;64454;51.984;9.838;2023-05-07T08:12:50;100665.00;;;12.40
75822;BMP180;64454;51.984;9.838;2023-05-07T08:15:17;100666.00;;;12.50
75822;BMP180;64454;51.984;9.838;2023-05-07T08:17:45;100668.00;;;12.40
75822;BMP180;64454;51.984;9.838;2023-05-07T08:20:12;100667.00;;;12.00
75822;BMP180;64454;51.984;9.838;2023-05-07T08:22:39;100663.00;;;12.30
75822;BMP180;64454;51.984;9.838;2023-05-07T08:25:06;100660.00;;;12.30
75822;BMP180;64454;51.984;9.838;2023-05-07T08:27:33;100669.00;;;12.50
75822;BMP180;64454;51.984;9.838;2023-05-07T08:30:00;100666.00;;;12.40
75822;BMP180;64454;51.984;9.838;2023-05-07T08:32:26;100666.00;;;12.50
75822;BMP180;64454;51.984;9.838;2023-05-07T08:34:54;100671.00;;;12.50
75822;BMP180;64454;51.984;9.838;2023-05-07T08:37:21;100676.00;;;12.40
75822;BMP180;64454;51.984;9.838;2023-05-07T08:39:48;100671.00;;;12.10
75822;BMP180;64454;51.984;9.838;2023-05-07T08:42:17;100670.00;;;12.10
75822;BMP180;64454;51.984;9.838;2023-05-07T08:44:45;100663.00;;;12.20
75822;BMP180;64454;51.984;9.838;2023-05-07T08:47:13;100663.00;;;12.50
75822;BMP180;64454;51.984;9.838;2023-05-07T08:49:40;100670.00;;;12.30
75822;BMP180;64454;51.984;9.838;2023-05-07T08:52:08;100673.00;;;12.50
75822;BMP180;64454;51.984;9.838;2023-05-07T08:54:37;100675.00;;;12.40
75822;BMP180;64454;51.984;9.838;2023-05-07T08:57:04;100670.00;;;12.30
75822;BMP180;64454;51.984;9.838;2023-05-07T08:59:31;100667.00;;;12.30
75822;BMP180;64454;51.984;9.838;2023-05-07T09:01:58;100672.00;;;12.20
75822;BMP180;64454;51.984;9.838;2023-05-07T09:04:25;100671.00;;;12.50
75822;BMP180;64454;51.984;9.838;2023-05-07T09:06:51;100660.00;;;12.60
75822;BMP180;64454;51.984;9.838;2023-05-07T09:09:22;100662.00;;;12.80
75822;BMP180;64454;51.984;9.838;2023-05-07T09:11:48;100666.00;;;12.50
75822;BMP180;64454;51.984;9.838;2023-05-07T09:14:21;100665.00;;;12.50
75822;BMP180;64454;51.984;9.838;2023-05-07T09:16:48;100664.00;;;12.50
75822;BMP180;64454;51.984;9.838;2023-05-07T09:19:22;100657.00;;;12.80
75822;BMP180;64454;51.984;9.838;2023-05-07T09:21:49;100661.00;;;12.90
75822;BMP180;64454;51.984;9.838;2023-05-07T09:24:17;100656.00;;;12.90
75822;BMP180;64454;51.984;9.838;2023-05-07T09:26:47;100660.00;;;12.80
75822;BMP180;64454;51.984;9.838;2023-05-07T09:29:17;100659.00;;;12.90
75822;BMP180;64454;51.984;9.838;2023-05-07T09:31:45;100665.00;;;13.00
75822;BMP180;64454;51.984;9.838;2023-05-07T09:34:12;100662.00;;;12.90
75822;BMP180;64454;51.984;9.838;2023-05-07T09:36:39;100668.00;;;13.20
75822;BMP180;64454;51.984;9.838;2023-05-07T09:39:06;100663.00;;;13.50
75822;BMP180;64454;51.984;9.838;2023-05-07T09:41:33;100666.00;;;13.60
75822;BMP180;64454;51.984;9.838;2023-05-07T09:44:11;100673.00;;;13.50
75822;BMP180;64454;51.984;9.838;2023-05-07T09:46:39;100673.00;;;13.30
75822;BMP180;64454;51.984;9.838;2023-05-07T09:49:13;100681.00;;;13.60
75822;BMP180;64454;51.984;9.838;2023-05-07T09:51:48;100677.00;;;13.20
75822;BMP180;64454;51.984;9.838;2023-05-07T09:54:18;100681.00;;;13.10
75822;BMP180;64454;51.984;9.838;2023-05-07T09:56:48;100680.00;;;13.00
75822;BMP180;64454;51.984;9.838;2023-05-07T09:59:18;100676.00;;;13.10
75822;BMP180;64454;51.984;9.838;2023-05-07T10:01:47;100679.00;;;13.00
75822;BMP180;64454;51.984;9.838;2023-05-07T10:04:18;100674.00;;;13.10
75822;BMP180;64454;51.984;9.838;2023-05-07T10:06:47;100673.00;;;13.10
75822;BMP180;64454;51.984;9.838;2023-05-07T10:09:16;100680.00;;;13.30
75822;BMP180;64454;51.984;9.838;2023-05-07T10:11:45;100675.00;;;13.70
75822;BMP180;64454;51.984;9.838;2023-05-07T10:14:16;100673.00;;;13.60
75822;BMP180;64454;51.984;9.838;2023-05-07T10:16:44;100670.00;;;13.80
75822;BMP180;64454;51.984;9.838;2023-05-07T10:19:11;100678.00;;;13.80
75822;BMP180;64454;51.984;9.838;2023-05-07T10:21:48;100679.00;;;13.80
75822;BMP180;64454;51.984;9.838;2023-05-07T10:24:21;100674.00;;;13.80
75822;BMP180;64454;51.984;9.838;2023-05-07T10:26:51;100680.00;;;13.50
75822;BMP180;64454;51.984;9.838;2023-05-07T10:29:34;100676.00;;;13.60
75822;BMP180;64454;51.984;9.838;2023-05-07T10:32:35;100673.00;;;14.00
75822;BMP180;64454;51.984;9.838;2023-05-07T10:35:11;100671.00;;;13.70
75822;BMP180;64454;51.984;9.838;2023-05-07T10:37:41;100675.00;;;14.30
75822;BMP180;64454;51.984;9.838;2023-05-07T10:40:11;100665.00;;;14.50
75822;BMP180;64454;51.984;9.838;2023-05-07T10:42:38;100675.00;;;14.70
75822;BMP180;64454;51.984;9.838;2023-05-07T10:45:13;100677.00;;;14.90
75822;BMP180;64454;51.984;9.838;2023-05-07T10:48:07;100670.00;;;14.60
75822;BMP180;64454;51.984;9.838;2023-05-07T10:50:35;100674.00;;;14.90
75822;BMP180;64454;51.984;9.838;2023-05-07T10:53:24;100684.00;;;14.70
75822;BMP180;64454;51.984;9.838;2023-05-07T10:56:26;100682.00;;;15.30
75822;BMP180;64454;51.984;9.838;2023-05-07T10:59:34;100681.00;;;15.20
75822;BMP180;64454;51.984;9.838;2023-05-07T11:02:08;100671.00;;;15.00
75822;BMP180;64454;51.984;9.838;2023-05-07T11:04:37;100677.00;;;15.10
75822;BMP180;64454;51.984;9.838;2023-05-07T11:07:32;100685.00;;;15.20
75822;BMP180;64454;51.984;9.838;2023-05-07T11:10:04;100688.00;;;14.90
75822;BMP180;64454;51.984;9.838;2023-05-07T11:12:53;100680.00;;;15.10
75822;BMP180;64454;51.984;9.838;2023-05-07T11:15:48;100679.00;;;14.80
75822;BMP180;64454;51.984;9.838;2023-05-07T11:18:17;100670.00;;;15.40
75822;BMP180;64454;51.984;9.838;2023-05-07T11:20:56;100671.00;;;15.80
75822;BMP180;64454;51.984;9.838;2023-05-07T11:23:58;100662.00;;;16.70
75822;BMP180;64454;51.984;9.838;2023-05-07T11:26:28;100655.00;;;17.10
75822;BMP180;64454;51.984;9.838;2023-05-07T11:28:55;100654.00;;;17.20
75822;BMP180;64454;51.984;9.838;2023-05-07T11:31:25;100665.00;;;18.30
75822;BMP180;64454;51.984;9.838;2023-05-07T11:33:54;100664.00;;;18.20
75822;BMP180;64454;51.984;9.838;2023-05-07T11:36:23;100678.00;;;17.70
75822;BMP180;64454;51.984;9.838;2023-05-07T11:38:50;100679.00;;;16.50
75822;BMP180;64454;51.984;9.838;2023-05-07T11:41:17;100678.00;;;16.00
75822;BMP180;64454;51.984;9.838;2023-05-07T11:43:57;100680.00;;;16.40
75822;BMP180;64454;51.984;9.838;2023-05-07T11:46:25;100686.00;;;15.80
75822;BMP180;64454;51.984;9.838;2023-05-07T11:48:52;100691.00;;;15.60
75822;BMP180;64454;51.984;9.838;2023-05-07T11:51:22;100687.00;;;16.00
75822;BMP180;64454;51.984;9.838;2023-05-07T11:53:49;100685.00;;;15.70
75822;BMP180;64454;51.984;9.838;2023-05-07T11:56:18;100688.00;;;16.00
75822;BMP180;64454;51.984;9.838;2023-05-07T11:58:47;100682.00;;;16.40
75822;BMP180;64454;51.984;9.838;2023-05-07T12:01:15;100682.00;;;16.10
75822;BMP180;64454;51.984;9.838;2023-05-07T12:03:45;100687.00;;;15.40
75822;BMP180;64454;51.984;9.838;2023-05-07T12:06:14;100687.00;;;15.30
75822;BMP180;64454;51.984;9.838;2023-05-07T12:08:44;100689.00;;;16.00
75822;BMP180;64454;51.984;9.838;2023-05-07T12:11:15;100691.00;;;16.50
75822;BMP180;64454;51.984;9.838;2023-05-07T12:13:43;100688.00;;;16.60
75822;BMP180;64454;51.984;9.838;2023-05-07T12:16:11;100680.00;;;16.00
75822;BMP180;64454;51.984;9.838;2023-05-07T12:18:39;100684.00;;;16.40
75822;BMP180;64454;51.984;9.838;2023-05-07T12:21:07;100678.00;;;15.70
75822;BMP180;64454;51.984;9.838;2023-05-07T12:23:36;100678.00;;;16.30
75822;BMP180;64454;51.984;9.838;2023-05-07T12:26:05;100675.00;;;16.50
75822;BMP180;64454;51.984;9.838;2023-05-07T12:28:36;100680.00;;;16.90
75822;BMP180;64454;51.984;9.838;2023-05-07T12:31:04;100682.00;;;16.60
75822;BMP180;64454;51.984;9.838;2023-05-07T12:33:31;100692.00;;;16.70
75822;BMP180;64454;51.984;9.838;2023-05-07T12:36:03;100684.00;;;16.80
75822;BMP180;64454;51.984;9.838;2023-05-07T12:38:35;100684.00;;;16.90
75822;BMP180;64454;51.984;9.838;2023-05-07T12:41:05;100685.00;;;16.70
75822;BMP180;64454;51.984;9.838;2023-05-07T12:43:32;100678.00;;;16.40
75822;BMP180;64454;51.984;9.838;2023-05-07T12:46:02;100679.00;;;17.00
75822;BMP180;64454;51.984;9.838;2023-05-07T12:48:30;100682.00;;;16.90
75822;BMP180;64454;51.984;9.838;2023-05-07T12:50:59;100676.00;;;17.20
75822;BMP180;64454;51.984;9.838;2023-05-07T12:53:27;100679.00;;;17.50
75822;BMP180;64454;51.984;9.838;2023-05-07T12:55:56;100677.00;;;17.60
75822;BMP180;64454;51.984;9.838;2023-05-07T12:58:27;100677.00;;;17.20
75822;BMP180;64454;51.984;9.838;2023-05-07T13:00:56;100680.00;;;17.80
75822;BMP180;64454;51.984;9.838;2023-05-07T13:03:27;100673.00;;;17.20
75822;BMP180;64454;51.984;9.838;2023-05-07T13:05:56;100676.00;;;17.20
75822;BMP180;64454;51.984;9.838;2023-05-07T13:08:29;100680.00;;;17.10
75822;BMP180;64454;51.984;9.838;2023-05-07T13:10:58;100674.00;;;17.30
75822;BMP180;64454;51.984;9.838;2023-05-07T13:13:30;100672.00;;;18.00
75822;BMP180;64454;51.984;9.838;2023-05-07T13:15:57;100676.00;;;18.40
75822;BMP180;64454;51.984;9.838;2023-05-07T13:18:25;100675.00;;;18.10
75822;BMP180;64454;51.984;9.838;2023-05-07T13:20:52;100677.00;;;18.10
75822;BMP180;64454;51.984;9.838;2023-05-07T13:23:19;100679.00;;;18.00
75822;BMP180;64454;51.984;9.838;2023-05-07T13:25:46;100666.00;;;18.10
75822;BMP180;64454;51.984;9.838;2023-05-07T13:28:13;100663.00;;;18.00
75822;BMP180;64454;51.984;9.838;2023-05-07T13:30:41;100670.00;;;18.30
75822;BMP180;64454;51.984;9.838;2023-05-07T13:33:08;100660.00;;;18.50
75822;BMP180;64454;51.984;9.838;2023-05-07T13:35:35;100668.00;;;18.60
75822;BMP180;64454;51.984;9.838;2023-05-07T13:38:03;100668.00;;;18.90
75822;BMP180;64454;51.984;9.838;2023-05-07T13:40:29;100667.00;;;18.40
75822;BMP180;64454;51.984;9.838;2023-05-07T13:42:57;100665.00;;;18.10
75822;BMP180;64454;51.984;9.838;2023-05-07T13:45:26;100667.00;;;18.90
75822;BMP180;64454;51.984;9.838;2023-05-07T13:47:57;100667.00;;;18.20
75822;BMP180;64454;51.984;9.838;2023-05-07T13:50:24;100670.00;;;18.70
75822;BMP180;64454;51.984;9.838;2023-05-07T13:52:52;100675.00;;;18.40
75822;BMP180;64454;51.984;9.838;2023-05-07T13:55:21;100669.00;;;18.10
75822;BMP180;64454;51.984;9.838;2023-05-07T13:57:55;100662.00;;;18.10
75822;BMP180;64454;51.984;9.838;2023-05-07T14:00:23;100661.00;;;18.80
75822;BMP180;64454;51.984;9.838;2023-05-07T14:02:50;100661.00;;;18.70
75822;BMP180;64454;51.984;9.838;2023-05-07T14:05:18;100660.00;;;18.60